Time;durP1;ratioP1;P1;durP2;ratioP2;P2;SDS_P1;SDS_P2;PMS_P1;PMS_P2;Temp;Humidity;BMP_temperature;BMP_pressure;BME280_temperature;BME280_humidity;BME280_pressure;Samples;Min_cycle;Max_cycle;Signal;HPM_P1;HPM_P2
2022/06/11 00:01:15;;;;;;;;;;;;;;;15.91;82.62;101948.66;5072525;28;19917;-32
2022/06/11 00:03:40;;;;;;;;;;;;;;;15.84;83.27;101960.44;5073695;28;19931;-32
2022/06/11 00:06:06;;;;;;;;;;;;;;;15.81;83.58;101961.66;5074567;28;19940;-31
2022/06/11 00:08:32;;;;;;;;;;;;;;;15.79;83.87;101958.28;5073285;28;19978;-32
2022/06/11 00:10:57;;;;;;;;;;;;;;;15.78;84.21;101953.91;5073676;28;19956;-32
2022/06/11 00:13:22;;;;;;;;;;;;;;;15.77;84.38;101952.22;5073717;28;19920;-32
2022/06/11 00:15:48;;;;;;;;;;;;;;;15.74;84.66;101952.59;5073847;28;19909;-31
2022/06/11 00:18:14;;;;;;;;;;;;;;;15.73;84.85;101953.63;5074010;28;19913;-32
2022/06/11 00:20:39;;;;;;;;;;;;;;;15.70;84.77;101940.44;5073236;28;19921;-32
2022/06/11 00:23:04;;;;;;;;;;;;;;;15.70;84.82;101946.72;5072618;28;19928;-30
2022/06/11 00:25:32;;;;;;;;;;;;;;;15.67;83.95;101957.06;5074315;28;19939;-31
2022/06/11 00:27:57;;;;;;;;;;;;;;;15.68;83.70;101951.44;5073243;28;20360;-33
2022/06/11 00:30:22;;;;;;;;;;;;;;;15.69;83.76;101949.59;5072682;28;19920;-32
2022/06/11 00:32:48;;;;;;;;;;;;;;;15.66;83.61;101955.38;5073589;28;19924;-32
2022/06/11 00:35:13;;;;;;;;;;;;;;;15.64;83.33;101952.00;5073960;28;19963;-31
2022/06/11 00:37:38;;;;;;;;;;;;;;;15.66;83.17;101955.38;5073837;28;19940;-31
2022/06/11 00:40:05;;;;;;;;;;;;;;;15.65;82.96;101959.13;5073940;28;20331;-32
2022/06/11 00:42:32;;;;;;;;;;;;;;;15.62;83.16;101954.91;5074099;28;19924;-33
2022/06/11 00:45:13;;;;;;;;;;;;;;;15.59;83.31;101958.84;5073896;28;19924;-33
2022/06/11 00:47:38;;;;;;;;;;;;;;;15.57;82.98;101960.91;5073461;28;19962;-32
2022/06/11 00:50:16;;;;;;;;;;;;;;;15.58;82.78;101949.00;5073655;28;19945;-32
2022/06/11 00:52:42;;;;;;;;;;;;;;;15.58;82.68;101959.88;5073530;28;19972;-30
2022/06/11 00:55:08;;;;;;;;;;;;;;;15.59;82.27;101958.00;5072335;28;19912;-32
2022/06/11 00:57:34;;;;;;;;;;;;;;;15.58;82.25;101953.59;5072833;28;20020;-32
2022/06/11 01:00:05;;;;;;;;;;;;;;;15.55;82.17;101968.38;5057747;28;19928;-31
2022/06/11 01:02:30;;;;;;;;;;;;;;;15.51;81.44;101961.66;5076628;28;19920;-33
2022/06/11 01:04:57;;;;;;;;;;;;;;;15.52;80.33;101960.63;5076700;28;19925;-32
2022/06/11 01:07:32;;;;;;;;;;;;;;;15.52;77.62;101955.19;5076689;28;19953;-31
2022/06/11 01:10:00;;;;;;;;;;;;;;;15.56;77.27;101958.38;5075689;28;19987;-33
2022/06/11 01:12:28;;;;;;;;;;;;;;;15.55;76.99;101956.69;5075829;28;19972;-33
2022/06/11 01:14:56;;;;;;;;;;;;;;;15.54;74.60;101958.56;5077494;28;19935;-31
2022/06/11 01:17:27;;;;;;;;;;;;;;;15.55;74.07;101957.53;5077670;28;19920;-32
2022/06/11 01:20:05;;;;;;;;;;;;;;;15.55;73.60;101952.09;5077035;28;19935;-31
2022/06/11 01:22:30;;;;;;;;;;;;;;;15.55;73.52;101962.97;5076773;28;19951;-34
2022/06/11 01:24:55;;;;;;;;;;;;;;;15.52;73.80;101952.47;5077271;28;19917;-33
2022/06/11 01:27:39;;;;;;;;;;;;;;;15.51;73.98;101953.53;5076684;28;19920;-32
2022/06/11 01:30:06;;;;;;;;;;;;;;;15.48;74.30;101951.19;5076722;28;19920;-33
2022/06/11 01:32:50;;;;;;;;;;;;;;;15.45;74.60;101959.69;5075561;28;19940;-31
2022/06/11 01:35:18;;;;;;;;;;;;;;;15.42;74.77;101960.06;5076764;28;19909;-31
2022/06/11 01:38:06;;;;;;;;;;;;;;;15.41;74.90;101958.38;5076885;28;19929;-34
2022/06/11 01:40:38;;;;;;;;;;;;;;;15.36;75.21;101969.78;5075020;28;19925;-31
2022/06/11 01:43:10;;;;;;;;;;;;;;;15.36;75.49;101968.94;5076110;28;19924;-33
2022/06/11 01:45:36;;;;;;;;;;;;;;;15.31;75.71;101963.25;5075718;28;19925;-31
2022/06/11 01:48:03;;;;;;;;;;;;;;;15.31;75.99;101968.66;5075861;28;19919;-33
2022/06/11 01:50:29;;;;;;;;;;;;;;;15.27;76.12;101962.78;5074974;28;19927;-32
2022/06/11 01:53:14;;;;;;;;;;;;;;;15.26;76.46;101966.50;5075457;28;19924;-33
2022/06/11 01:55:50;;;;;;;;;;;;;;;15.24;76.57;101963.13;5076056;28;19932;-33
2022/06/11 01:58:19;;;;;;;;;;;;;;;15.20;77.02;101963.72;5075539;28;19924;-33
2022/06/11 02:01:04;;;;;;;;;;;;;;;15.14;77.19;101971.56;5074973;28;19971;-33
2022/06/11 02:03:51;;;;;;;;;;;;;;;15.07;76.77;101973.31;5072021;28;19984;-32
2022/06/11 02:06:25;;;;;;;;;;;;;;;15.06;76.95;101976.19;5076135;28;19917;-31
2022/06/11 02:09:05;;;;;;;;;;;;;;;15.05;77.18;101972.63;5075441;28;19932;-31
2022/06/11 02:11:36;;;;;;;;;;;;;;;15.03;77.13;101982.81;5074647;28;19928;-32
2022/06/11 02:14:20;;;;;;;;;;;;;;;14.98;77.28;101973.56;5075268;28;19923;-32
2022/06/11 02:16:49;;;;;;;;;;;;;;;14.95;77.52;101974.75;5075340;28;19984;-32
2022/06/11 02:19:15;;;;;;;;;;;;;;;14.90;77.64;101978.03;5075314;28;19917;-32
2022/06/11 02:21:43;;;;;;;;;;;;;;;14.87;77.89;101980.25;5073730;28;19916;-33
2022/06/11 02:24:14;;;;;;;;;;;;;;;14.88;77.99;101981.97;5075016;28;19924;-32
2022/06/11 02:26:40;;;;;;;;;;;;;;;14.81;78.43;101975.56;5073955;28;20000;-31
2022/06/11 02:29:06;;;;;;;;;;;;;;;14.82;78.58;101979.97;5074899;28;19909;-33
2022/06/11 02:31:33;;;;;;;;;;;;;;;14.83;78.87;101971.66;5074663;28;19925;-32
2022/06/11 02:34:02;;;;;;;;;;;;;;;14.80;79.08;101969.31;5075220;28;20509;-32
2022/06/11 02:36:30;;;;;;;;;;;;;;;14.78;79.11;101967.81;5074393;28;19931;-32
2022/06/11 02:38:56;;;;;;;;;;;;;;;14.80;79.35;101971.19;5075388;28;19947;-32
2022/06/11 02:41:24;;;;;;;;;;;;;;;14.77;79.55;101990.50;5075175;28;19912;-32
2022/06/11 02:43:49;;;;;;;;;;;;;;;14.77;79.69;101987.78;5073842;28;19999;-33
2022/06/11 02:49:00;;;;;;;;;;;;;;;14.73;80.17;101991.91;5075054;28;20185;-31
2022/06/11 02:51:26;;;;;;;;;;;;;;;14.70;80.52;101990.41;5074339;28;20216;-30
2022/06/11 02:53:51;;;;;;;;;;;;;;;14.69;80.78;101989.56;5073929;28;19917;-31
2022/06/11 02:56:16;;;;;;;;;;;;;;;14.65;81.05;101985.50;5074775;28;19904;-32
2022/06/11 02:58:41;;;;;;;;;;;;;;;14.67;81.21;101982.63;5074621;28;19936;-31
2022/06/11 03:01:07;;;;;;;;;;;;;;;14.63;81.30;101992.97;5075208;28;19921;-31
2022/06/11 03:03:33;;;;;;;;;;;;;;;14.64;81.56;102000.09;5074931;28;20004;-32
2022/06/11 03:05:59;;;;;;;;;;;;;;;14.63;81.61;101998.41;5075267;28;19933;-30
2022/06/11 03:08:24;;;;;;;;;;;;;;;14.62;81.96;101991.31;5075191;28;19924;-30
2022/06/11 03:10:54;;;;;;;;;;;;;;;14.62;81.98;101999.44;5075300;28;19921;-33
2022/06/11 03:13:20;;;;;;;;;;;;;;;14.62;82.11;102001.31;5074121;28;19972;-31
2022/06/11 03:15:45;;;;;;;;;;;;;;;14.62;82.37;102002.13;5074371;28;19920;-31
2022/06/11 03:18:10;;;;;;;;;;;;;;;14.62;82.53;102007.56;5074666;28;19950;-31
2022/06/11 03:20:35;;;;;;;;;;;;;;;14.62;82.81;102007.56;5074673;28;19909;-32
2022/06/11 03:23:01;;;;;;;;;;;;;;;14.61;83.00;102005.00;5074273;28;20007;-31
2022/06/11 03:25:26;;;;;;;;;;;;;;;14.60;83.09;102008.75;5073230;28;19920;-34
2022/06/11 03:27:51;;;;;;;;;;;;;;;14.58;83.35;102017.06;5073393;28;20015;-31
2022/06/11 03:30:17;;;;;;;;;;;;;;;14.56;83.49;102013.72;5072496;28;19909;-31
2022/06/11 03:32:42;;;;;;;;;;;;;;;14.57;83.90;102019.97;5073468;28;19948;-32
2022/06/11 03:35:08;;;;;;;;;;;;;;;14.57;83.86;102026.22;5073251;28;20044;-31
2022/06/11 03:37:33;;;;;;;;;;;;;;;14.57;84.20;102023.50;5071451;28;19939;-33
2022/06/11 03:39:58;;;;;;;;;;;;;;;14.59;84.53;102029.59;5072598;28;19959;-32
2022/06/11 03:42:23;;;;;;;;;;;;;;;14.60;84.65;102028.56;5072527;28;20281;-34
2022/06/11 03:44:48;;;;;;;;;;;;;;;14.61;84.85;102038.41;5072417;28;20311;-33
2022/06/11 03:47:14;;;;;;;;;;;;;;;14.62;85.05;102026.53;5072309;28;19951;-32
2022/06/11 03:49:39;;;;;;;;;;;;;;;14.61;85.42;102038.41;5072502;28;19996;-33
2022/06/11 03:52:04;;;;;;;;;;;;;;;14.61;85.65;102032.97;5071589;28;19925;-33
2022/06/11 03:54:30;;;;;;;;;;;;;;;14.62;85.77;102029.22;5072079;28;19904;-33
2022/06/11 03:56:55;;;;;;;;;;;;;;;14.62;86.03;102039.22;5072258;28;19921;-33
2022/06/11 03:59:21;;;;;;;;;;;;;;;14.61;86.10;102043.81;5072232;28;19919;-33
2022/06/11 04:01:47;;;;;;;;;;;;;;;14.65;86.32;102049.72;5071733;28;19954;-33
2022/06/11 04:04:14;;;;;;;;;;;;;;;14.67;86.28;102053.94;5071594;28;19916;-33
2022/06/11 04:06:41;;;;;;;;;;;;;;;14.66;86.28;102062.22;5072619;28;19908;-32
2022/06/11 04:09:09;;;;;;;;;;;;;;;14.65;86.57;102050.53;5072569;28;19936;-34
2022/06/11 04:11:34;;;;;;;;;;;;;;;14.65;86.75;102049.72;5072869;28;19923;-32
2022/06/11 04:14:00;;;;;;;;;;;;;;;14.67;86.98;102048.50;5073297;28;19921;-31
2022/06/11 04:16:27;;;;;;;;;;;;;;;14.69;87.00;102056.44;5072654;28;19932;-33
2022/06/11 04:18:53;;;;;;;;;;;;;;;14.74;87.02;102061.31;5071987;28;19912;-33
2022/06/11 04:21:18;;;;;;;;;;;;;;;14.79;86.98;102062.47;5071871;28;19958;-32
2022/06/11 04:23:45;;;;;;;;;;;;;;;14.80;86.58;102068.75;5072156;28;19924;-32
2022/06/11 04:26:12;;;;;;;;;;;;;;;14.85;86.63;102069.03;5072012;28;19935;-33
2022/06/11 04:28:37;;;;;;;;;;;;;;;14.84;86.65;102064.66;5073173;28;19909;-32
2022/06/11 04:31:04;;;;;;;;;;;;;;;14.84;86.35;102070.91;5071628;28;19941;-30
2022/06/11 04:33:29;;;;;;;;;;;;;;;14.87;86.59;102075.13;5071536;28;19920;-32
2022/06/11 04:35:55;;;;;;;;;;;;;;;14.91;86.44;102077.31;5083974;28;19963;-32
2022/06/11 04:38:20;;;;;;;;;;;;;;;15.02;86.41;102072.50;5080542;28;19951;-30
2022/06/11 04:40:45;;;;;;;;;;;;;;;15.06;86.15;102080.09;5074904;28;19936;-32
2022/06/11 04:43:10;;;;;;;;;;;;;;;15.09;85.75;102084.31;5075560;28;19928;-32
2022/06/11 04:45:36;;;;;;;;;;;;;;;15.15;85.58;102081.69;5074567;28;19992;-31
2022/06/11 04:48:01;;;;;;;;;;;;;;;15.22;85.57;102083.66;5073326;28;19943;-30
2022/06/11 04:50:26;;;;;;;;;;;;;;;15.25;85.36;102084.16;5073746;28;20117;-31
2022/06/11 04:52:52;;;;;;;;;;;;;;;15.31;85.11;102082.59;5074510;28;19946;-32
2022/06/11 04:55:17;;;;;;;;;;;;;;;15.36;84.99;102091.84;5072569;28;19913;-32
2022/06/11 04:57:43;;;;;;;;;;;;;;;15.47;84.66;102082.44;5074743;28;19911;-32
2022/06/11 05:00:09;;;;;;;;;;;;;;;15.52;84.33;102090.88;5074676;28;19939;-32
2022/06/11 05:02:34;;;;;;;;;;;;;;;15.56;84.08;102097.63;5075247;28;20220;-32
2022/06/11 05:04:59;;;;;;;;;;;;;;;15.63;83.75;102094.16;5075237;28;19980;-32
2022/06/11 05:07:24;;;;;;;;;;;;;;;15.67;83.65;102098.19;5075393;28;19943;-32
2022/06/11 05:09:50;;;;;;;;;;;;;;;15.76;83.48;102102.53;5075189;28;19924;-33
2022/06/11 05:12:15;;;;;;;;;;;;;;;15.78;82.62;102104.03;5074700;28;19909;-31
2022/06/11 05:14:41;;;;;;;;;;;;;;;15.83;82.34;102102.66;5074356;28;20222;-33
2022/06/11 05:17:06;;;;;;;;;;;;;;;15.82;82.15;102103.66;5074451;28;19909;-31
2022/06/11 05:19:31;;;;;;;;;;;;;;;15.94;82.29;102105.72;5076660;28;19940;-31
2022/06/11 05:21:57;;;;;;;;;;;;;;;16.05;81.90;102109.84;5077651;28;19920;-33
2022/06/11 05:24:22;;;;;;;;;;;;;;;16.03;81.29;102114.63;5074839;28;19908;-31
2022/06/11 05:26:55;;;;;;;;;;;;;;;16.08;81.19;102105.91;5074503;28;20030;-30
2022/06/11 05:29:41;;;;;;;;;;;;;;;16.13;81.13;102114.34;5073453;28;19928;-31
2022/06/11 05:32:07;;;;;;;;;;;;;;;16.17;80.84;102110.25;5074445;28;19925;-31
2022/06/11 05:34:32;;;;;;;;;;;;;;;16.31;80.97;102122.13;5073937;28;19919;-32
2022/06/11 05:36:58;;;;;;;;;;;;;;;16.35;80.20;102115.25;5074259;28;19928;-32
2022/06/11 05:39:23;;;;;;;;;;;;;;;16.32;79.52;102112.94;5074144;28;19940;-32
2022/06/11 05:41:48;;;;;;;;;;;;;;;16.33;79.68;102114.63;5074100;28;19936;-32
2022/06/11 05:44:13;;;;;;;;;;;;;;;16.50;79.34;102121.53;5074770;28;19996;-33
2022/06/11 05:46:39;;;;;;;;;;;;;;;16.55;79.02;102123.69;5070116;28;19929;-33
2022/06/11 05:49:05;;;;;;;;;;;;;;;16.66;78.79;102126.72;5072383;28;19932;-31
2022/06/11 05:51:32;;;;;;;;;;;;;;;16.63;78.21;102118.13;5073004;28;19935;-32
2022/06/11 05:53:58;;;;;;;;;;;;;;;16.58;77.52;102123.28;5069123;28;19985;-34
2022/06/11 05:56:23;;;;;;;;;;;;;;;16.64;77.91;102125.25;5074571;28;19904;-34
2022/06/11 05:58:49;;;;;;;;;;;;;;;16.84;78.15;102129.06;5074626;28;19924;-33
2022/06/11 06:01:15;;;;;;;;;;;;;;;17.03;77.34;102121.31;5074186;28;19916;-30
2022/06/11 06:03:40;;;;;;;;;;;;;;;17.31;77.21;102118.66;5061896;28;19908;-34
2022/06/11 06:06:06;;;;;;;;;;;;;;;17.48;76.34;102122.81;5072199;28;19994;-34
2022/06/11 06:08:31;;;;;;;;;;;;;;;17.27;75.29;102129.13;5073224;28;20224;-33
2022/06/11 06:10:56;;;;;;;;;;;;;;;17.24;75.08;102124.03;5072825;28;19952;-33
2022/06/11 06:16:05;;;;;;;;;;;;;;;17.49;73.20;102126.38;5074369;28;20052;-30
2022/06/11 06:18:31;;;;;;;;;;;;;;;17.62;73.18;102131.91;5072382;28;19934;-33
2022/06/11 06:20:56;;;;;;;;;;;;;;;17.55;72.13;102125.56;5074302;28;19925;-32
2022/06/11 06:23:21;;;;;;;;;;;;;;;17.89;72.04;102132.16;5075842;28;19932;-33
2022/06/11 06:25:49;;;;;;;;;;;;;;;18.11;70.00;102135.63;5076669;28;19945;-34
2022/06/11 06:28:14;;;;;;;;;;;;;;;18.51;69.63;102133.97;5076357;28;19919;-32
2022/06/11 06:30:40;;;;;;;;;;;;;;;18.85;69.20;102135.81;5076577;28;19949;-33
2022/06/11 06:33:05;;;;;;;;;;;;;;;19.16;67.63;102145.28;5075982;28;19925;-33
2022/06/11 06:35:30;;;;;;;;;;;;;;;19.41;66.51;102141.97;5075708;28;19932;-33
2022/06/11 06:37:55;;;;;;;;;;;;;;;19.28;64.40;102151.00;5076887;28;19909;-32
2022/06/11 06:40:21;;;;;;;;;;;;;;;19.04;64.74;102153.25;5076660;28;19909;-34
2022/06/11 06:42:46;;;;;;;;;;;;;;;19.18;63.90;102153.28;5076677;28;19920;-33
2022/06/11 06:45:11;;;;;;;;;;;;;;;18.98;62.81;102154.06;5076830;28;19946;-33
2022/06/11 06:47:36;;;;;;;;;;;;;;;19.02;63.16;102149.06;5076747;28;19967;-33
2022/06/11 06:50:02;;;;;;;;;;;;;;;19.35;64.33;102151.81;5074799;28;19976;-32
2022/06/11 06:52:27;;;;;;;;;;;;;;;19.55;61.90;102153.75;5075778;28;19921;-33
2022/06/11 06:54:53;;;;;;;;;;;;;;;19.32;60.59;102156.88;5076172;28;19948;-33
2022/06/11 06:57:18;;;;;;;;;;;;;;;19.51;59.93;102154.16;5075995;28;19964;-33
2022/06/11 06:59:43;;;;;;;;;;;;;;;20.02;60.71;102151.84;5076394;28;19920;-33
2022/06/11 07:02:10;;;;;;;;;;;;;;;20.65;58.02;102165.78;5076547;28;19909;-30
2022/06/11 07:04:35;;;;;;;;;;;;;;;20.92;57.46;102168.38;5076438;28;19909;-31
2022/06/11 07:07:00;;;;;;;;;;;;;;;22.01;54.34;102164.44;5076682;28;19943;-32
2022/06/11 07:09:25;;;;;;;;;;;;;;;22.91;52.08;102158.31;5075975;28;19928;-33
2022/06/11 07:11:50;;;;;;;;;;;;;;;23.61;48.38;102165.94;5076386;28;19915;-34
2022/06/11 07:14:16;;;;;;;;;;;;;;;24.49;44.64;102171.59;5076085;28;20235;-34
2022/06/11 07:16:42;;;;;;;;;;;;;;;24.83;43.05;102163.44;5075259;28;19912;-35
2022/06/11 07:19:11;;;;;;;;;;;;;;;24.70;43.28;102159.09;5075144;28;19905;-33
2022/06/11 07:21:40;;;;;;;;;;;;;;;24.56;44.44;102166.75;5075380;28;19925;-31
2022/06/11 07:24:05;;;;;;;;;;;;;;;25.58;44.19;102171.44;5074640;28;19927;-33
2022/06/11 07:26:36;;;;;;;;;;;;;;;25.48;42.50;102174.03;5074083;28;19920;-32
2022/06/11 07:29:04;;;;;;;;;;;;;;;26.04;39.04;102169.44;5075068;28;20004;-32
2022/06/11 07:31:30;;;;;;;;;;;;;;;26.38;39.08;102168.50;5074178;28;19932;-30
2022/06/11 07:33:55;;;;;;;;;;;;;;;26.30;38.39;102178.06;5073067;28;19925;-32
2022/06/11 07:36:20;;;;;;;;;;;;;;;26.59;38.92;102180.69;5074481;28;19917;-32
2022/06/11 07:38:45;;;;;;;;;;;;;;;26.30;37.31;102172.53;5075006;28;19947;-31
2022/06/11 07:41:10;;;;;;;;;;;;;;;26.48;37.06;102175.00;5075156;28;19920;-32
2022/06/11 07:43:36;;;;;;;;;;;;;;;25.90;37.26;102179.16;5075176;28;19909;-32
2022/06/11 07:46:01;;;;;;;;;;;;;;;25.74;38.08;102179.97;5074860;28;19956;-33
2022/06/11 07:48:26;;;;;;;;;;;;;;;26.23;37.71;102183.78;5074884;28;19916;-33
2022/06/11 07:50:52;;;;;;;;;;;;;;;26.58;36.47;102190.06;5075221;28;19920;-33
2022/06/11 07:53:18;;;;;;;;;;;;;;;26.79;35.40;102183.69;5075411;28;19910;-32
2022/06/11 07:55:44;;;;;;;;;;;;;;;26.74;35.82;102189.16;5074896;28;19917;-33
2022/06/11 07:58:10;;;;;;;;;;;;;;;26.98;34.90;102189.69;5074043;28;19940;-32
2022/06/11 08:00:37;;;;;;;;;;;;;;;27.40;34.57;102177.16;5074158;28;19916;-33
2022/06/11 08:03:03;;;;;;;;;;;;;;;26.92;34.23;102186.03;5075151;28;19920;-34
2022/06/11 08:05:29;;;;;;;;;;;;;;;26.67;34.34;102194.03;5074997;28;20001;-32
2022/06/11 08:07:54;;;;;;;;;;;;;;;27.31;33.35;102188.69;5074465;28;19976;-34
2022/06/11 08:10:20;;;;;;;;;;;;;;;27.61;34.56;102192.81;5078094;28;19956;-33
2022/06/11 08:12:45;;;;;;;;;;;;;;;27.68;32.63;102193.44;5079330;28;19993;-33
2022/06/11 08:15:11;;;;;;;;;;;;;;;28.19;32.05;102199.34;5078687;28;19905;-33
2022/06/11 08:17:37;;;;;;;;;;;;;;;28.36;32.90;102195.56;5078342;28;19988;-33
2022/06/11 08:20:02;;;;;;;;;;;;;;;28.51;31.53;102195.66;5078397;28;19947;-33
2022/06/11 08:22:27;;;;;;;;;;;;;;;28.17;32.84;102201.56;5078340;28;19972;-33
2022/06/11 08:24:53;;;;;;;;;;;;;;;28.14;33.14;102204.00;5078109;28;19955;-33
2022/06/11 08:27:18;;;;;;;;;;;;;;;27.90;32.21;102203.59;5078516;28;19980;-32
2022/06/11 08:29:44;;;;;;;;;;;;;;;27.35;33.81;102206.41;5078694;28;19921;-32
2022/06/11 08:32:10;;;;;;;;;;;;;;;26.47;34.22;102195.41;5078351;28;19917;-32
2022/06/11 08:34:36;;;;;;;;;;;;;;;27.18;32.54;102202.09;5077784;28;19962;-34
2022/06/11 08:37:01;;;;;;;;;;;;;;;27.19;33.33;102198.25;5078293;28;19964;-33
2022/06/11 08:39:27;;;;;;;;;;;;;;;27.94;33.05;102190.91;5078435;28;19974;-33
2022/06/11 08:41:52;;;;;;;;;;;;;;;28.06;32.94;102199.81;5078173;28;19954;-33
2022/06/11 08:44:17;;;;;;;;;;;;;;;28.40;31.65;102193.91;5078575;28;19927;-33
2022/06/11 08:46:43;;;;;;;;;;;;;;;28.39;31.76;102197.81;5076940;28;19908;-32
2022/06/11 08:49:10;;;;;;;;;;;;;;;28.29;32.65;102206.06;5075385;28;19908;-32
2022/06/11 08:51:44;;;;;;;;;;;;;;;28.64;32.38;102195.16;5077338;28;19917;-32
2022/06/11 08:54:35;;;;;;;;;;;;;;;28.41;31.56;102188.13;5076974;28;20000;-31
2022/06/11 08:57:07;;;;;;;;;;;;;;;28.16;31.90;102194.34;5076295;28;19928;-33
2022/06/11 08:59:36;;;;;;;;;;;;;;;28.35;33.27;102185.59;5076483;28;19909;-32
2022/06/11 09:02:04;;;;;;;;;;;;;;;28.97;31.22;102190.28;5075672;28;19925;-33
2022/06/11 09:04:29;;;;;;;;;;;;;;;29.70;30.20;102187.38;5074643;28;19909;-32
2022/06/11 09:07:00;;;;;;;;;;;;;;;29.45;30.64;102179.84;5074659;28;19923;-33
2022/06/11 09:09:32;;;;;;;;;;;;;;;29.56;30.62;102182.59;5074813;28;19962;-33
2022/06/11 09:12:10;;;;;;;;;;;;;;;28.97;32.46;102176.44;5075622;28;19921;-33
2022/06/11 09:14:35;;;;;;;;;;;;;;;28.32;33.84;102186.94;5076482;28;19955;-33
2022/06/11 09:17:13;;;;;;;;;;;;;;;28.42;34.03;102177.88;5075802;28;19951;-33
2022/06/11 09:19:54;;;;;;;;;;;;;;;27.63;34.72;102179.56;5074924;28;19917;-33
2022/06/11 09:22:28;;;;;;;;;;;;;;;27.10;35.97;102184.03;5074993;28;19921;-32
2022/06/11 09:25:00;;;;;;;;;;;;;;;27.46;36.63;102174.19;5076618;28;19928;-33
2022/06/11 09:27:31;;;;;;;;;;;;;;;27.27;36.04;102181.19;5075055;28;19928;-33
2022/06/11 09:30:00;;;;;;;;;;;;;;;26.12;39.52;102175.59;5076088;28;20259;-33
2022/06/11 09:32:35;;;;;;;;;;;;;;;26.91;37.60;102181.63;5075850;28;19931;-34
2022/06/11 09:35:06;;;;;;;;;;;;;;;27.45;36.18;102193.78;5075940;28;19928;-33
2022/06/11 09:37:40;;;;;;;;;;;;;;;26.52;37.67;102185.59;5071589;28;19921;-32
2022/06/11 09:40:08;;;;;;;;;;;;;;;25.16;40.64;102182.00;5075197;28;19913;-33
2022/06/11 09:42:52;;;;;;;;;;;;;;;25.77;40.36;102184.97;5075371;28;19993;-32
2022/06/11 09:45:23;;;;;;;;;;;;;;;26.05;40.67;102190.41;5074993;28;19917;-33
2022/06/11 09:47:48;;;;;;;;;;;;;;;25.57;40.50;102186.34;5076017;28;19924;-32
2022/06/11 09:50:22;;;;;;;;;;;;;;;25.51;40.06;102198.34;5075853;28;19917;-33
2022/06/11 09:53:06;;;;;;;;;;;;;;;26.19;40.02;102195.56;5075921;28;19917;-33
2022/06/11 09:55:38;;;;;;;;;;;;;;;25.90;39.51;102192.94;5075862;28;19917;-33
2022/06/11 09:58:22;;;;;;;;;;;;;;;25.86;40.37;102186.28;5073326;28;19904;-33
2022/06/11 10:00:56;;;;;;;;;;;;;;;25.40;41.03;102196.50;5079766;28;19920;-33
2022/06/11 10:03:45;;;;;;;;;;;;;;;25.95;40.82;102203.22;5094535;28;19928;-33
2022/06/11 10:06:10;;;;;;;;;;;;;;;26.05;40.50;102201.47;5093563;28;19920;-34
2022/06/11 10:08:46;;;;;;;;;;;;;;;26.93;39.53;102197.94;5074722;28;19942;-33
2022/06/11 10:11:21;;;;;;;;;;;;;;;26.66;38.72;102215.28;5071245;28;19973;-34
2022/06/11 10:13:52;;;;;;;;;;;;;;;26.25;39.88;102202.81;5073773;28;19928;-33
2022/06/11 10:16:33;;;;;;;;;;;;;;;25.72;41.75;102206.97;5073975;28;19913;-34
2022/06/11 10:19:02;;;;;;;;;;;;;;;23.87;44.98;102208.66;5053307;28;19920;-33
2022/06/11 10:21:27;;;;;;;;;;;;;;;23.39;45.92;102208.78;5059860;28;19929;-33
2022/06/11 10:24:03;;;;;;;;;;;;;;;22.86;47.95;102218.56;5072945;28;19938;-32
2022/06/11 10:26:36;;;;;;;;;;;;;;;22.57;49.40;102218.28;5075743;28;19936;-31
2022/06/11 10:29:19;;;;;;;;;;;;;;;23.11;46.58;102218.47;5074879;28;20014;-32
2022/06/11 10:31:46;;;;;;;;;;;;;;;23.56;46.77;102226.25;5077648;28;19924;-31
2022/06/11 10:34:17;;;;;;;;;;;;;;;24.01;45.09;102220.28;5088810;28;20250;-33
2022/06/11 10:36:45;;;;;;;;;;;;;;;24.09;45.70;102224.56;5074065;28;19928;-34
2022/06/11 10:39:19;;;;;;;;;;;;;;;23.63;45.06;102237.16;5075299;28;19931;-33
2022/06/11 10:41:51;;;;;;;;;;;;;;;23.00;47.19;102227.50;5075634;28;19925;-32
2022/06/11 10:44:19;;;;;;;;;;;;;;;23.43;47.25;102219.09;5074833;28;19975;-32
2022/06/11 10:46:44;;;;;;;;;;;;;;;24.13;46.40;102222.19;5073167;28;20008;-32
2022/06/11 10:49:17;;;;;;;;;;;;;;;24.12;44.78;102224.13;5073562;28;19924;-33
2022/06/11 10:51:44;;;;;;;;;;;;;;;24.59;44.31;102218.56;5074413;28;19928;-33
2022/06/11 10:54:11;;;;;;;;;;;;;;;24.21;45.04;102214.41;5074985;28;19915;-34
2022/06/11 10:56:47;;;;;;;;;;;;;;;24.13;46.74;102208.44;5074043;28;19927;-34
2022/06/11 10:59:39;;;;;;;;;;;;;;;24.50;45.20;102209.84;5074096;28;19915;-33
2022/06/11 11:02:13;;;;;;;;;;;;;;;24.50;45.21;102220.88;5072687;28;19936;-33
2022/06/11 11:04:42;;;;;;;;;;;;;;;22.94;46.95;102220.16;5074362;28;19956;-33
2022/06/11 11:07:09;;;;;;;;;;;;;;;23.26;46.54;102226.31;5071997;28;19951;-34
2022/06/11 11:09:34;;;;;;;;;;;;;;;23.19;46.07;102229.13;5073547;28;19921;-32
2022/06/11 11:12:01;;;;;;;;;;;;;;;22.06;47.57;102221.31;5073620;28;19916;-29
2022/06/11 11:14:27;;;;;;;;;;;;;;;22.01;46.83;102230.22;5072564;28;19912;-33
2022/06/11 11:16:52;;;;;;;;;;;;;;;22.42;45.35;102220.56;5071827;28;20027;-33
2022/06/11 11:19:44;;;;;;;;;;;;;;;23.13;45.75;102223.75;5072915;28;19916;-34
2022/06/11 11:22:10;;;;;;;;;;;;;;;23.79;44.42;102228.25;5071911;28;19909;-34
2022/06/11 11:24:39;;;;;;;;;;;;;;;23.61;44.85;102222.81;5072561;28;19988;-32
2022/06/11 11:27:06;;;;;;;;;;;;;;;23.53;44.03;102228.66;5070793;28;20016;-33
2022/06/11 11:29:32;;;;;;;;;;;;;;;24.08;44.06;102229.25;5072359;28;19988;-33
2022/06/11 11:31:58;;;;;;;;;;;;;;;24.97;42.55;102219.91;5073436;28;19915;-34
2022/06/11 11:34:25;;;;;;;;;;;;;;;25.48;41.30;102226.41;5073641;28;19917;-33
2022/06/11 11:36:56;;;;;;;;;;;;;;;25.41;41.41;102225.75;5073735;28;19909;-34
2022/06/11 11:39:25;;;;;;;;;;;;;;;25.88;39.20;102225.44;5073534;28;19989;-33
2022/06/11 11:41:50;;;;;;;;;;;;;;;26.37;40.31;102220.13;5073902;28;20000;-34
2022/06/11 11:44:20;;;;;;;;;;;;;;;26.10;39.60;102224.72;5074019;28;19928;-33
2022/06/11 11:46:48;;;;;;;;;;;;;;;26.14;40.33;102228.63;5074216;28;19959;-32
2022/06/11 11:49:20;;;;;;;;;;;;;;;26.53;38.00;102226.72;5074327;28;19921;-33
2022/06/11 11:51:46;;;;;;;;;;;;;;;25.42;40.57;102223.81;5073509;28;19917;-32
2022/06/11 11:54:21;;;;;;;;;;;;;;;26.01;39.62;102235.31;5073570;28;19968;-34
2022/06/11 11:57:00;;;;;;;;;;;;;;;24.56;41.76;102224.56;5074897;28;19916;-34
2022/06/11 11:59:25;;;;;;;;;;;;;;;24.66;42.44;102240.47;5074241;28;19944;-33
2022/06/11 12:01:54;;;;;;;;;;;;;;;25.17;42.63;102225.88;5074845;28;19932;-33
2022/06/11 12:04:27;;;;;;;;;;;;;;;26.06;42.16;102232.63;5073899;28;20427;-33
2022/06/11 12:06:54;;;;;;;;;;;;;;;26.64;39.83;102228.50;5071938;28;19935;-34
2022/06/11 12:09:22;;;;;;;;;;;;;;;26.55;37.38;102234.75;5073844;28;19924;-33
2022/06/11 12:12:06;;;;;;;;;;;;;;;26.39;36.83;102237.28;5073257;28;19952;-33
2022/06/11 12:14:32;;;;;;;;;;;;;;;26.01;38.26;102229.78;5073865;28;19921;-32
2022/06/11 12:16:59;;;;;;;;;;;;;;;25.30;38.79;102226.63;5074503;28;19913;-33
2022/06/11 12:19:24;;;;;;;;;;;;;;;25.24;39.99;102224.88;5074044;28;19921;-34
2022/06/11 12:22:13;;;;;;;;;;;;;;;26.14;39.57;102223.09;5074469;28;19939;-33
2022/06/11 12:24:43;;;;;;;;;;;;;;;25.46;39.04;102223.09;5073337;28;19913;-33
2022/06/11 12:27:10;;;;;;;;;;;;;;;25.11;38.83;102220.44;5073178;28;20185;-32
2022/06/11 12:29:36;;;;;;;;;;;;;;;24.77;39.18;102231.34;5074274;28;19909;-32
2022/06/11 12:32:08;;;;;;;;;;;;;;;25.00;40.15;102218.59;5073554;28;19951;-33
2022/06/11 12:34:33;;;;;;;;;;;;;;;25.01;39.91;102220.25;5073094;28;19913;-33
2022/06/11 12:37:04;;;;;;;;;;;;;;;24.07;40.78;102224.00;5073605;28;19931;-33
2022/06/11 12:39:38;;;;;;;;;;;;;;;23.71;41.87;102227.75;5072216;28;19913;-34
2022/06/11 12:42:18;;;;;;;;;;;;;;;24.74;39.46;102215.31;5069913;28;19943;-33
2022/06/11 12:44:49;;;;;;;;;;;;;;;25.09;37.91;102211.59;5074800;28;20027;-33
2022/06/11 12:47:28;;;;;;;;;;;;;;;25.08;37.15;102213.50;5074806;28;19920;-32